sensor_id;sensor_type;location;lat;lon;timestamp;pressure;altitude;pressure_sealevel;temperature;humidity
16777;BME280;8505;49.456;8.164;2023-04-06T00:01:53;100045.03;;;-0.11;70.10
16777;BME280;8505;49.456;8.164;2023-04-06T00:04:21;100040.38;;;-0.06;69.89
16777;BME280;8505;49.456;8.164;2023-04-06T00:06:49;100041.50;;;-0.10;69.81
16777;BME280;8505;49.456;8.164;2023-04-06T00:09:17;100036.75;;;-0.03;69.76
16777;BME280;8505;49.456;8.164;2023-04-06T00:11:44;100045.03;;;-0.11;70.20
16777;BME280;8505;49.456;8.164;2023-04-06T00:14:13;100036.75;;;-0.03;69.47
16777;BME280;8505;49.456;8.164;2023-04-06T00:16:43;100030.97;;;0.06;69.42
16777;BME280;8505;49.456;8.164;2023-04-06T00:19:11;100029.22;;;-0.08;69.61
16777;BME280;8505;49.456;8.164;2023-04-06T00:21:39;100040.56;;;-0.09;69.68
16777;BME280;8505;49.456;8.164;2023-04-06T00:24:07;100036.50;;;-0.13;70.12
16777;BME280;8505;49.456;8.164;2023-04-06T00:26:35;100033.25;;;-0.16;70.31
16777;BME280;8505;49.456;8.164;2023-04-06T00:29:03;100029.16;;;-0.20;70.48
16777;BME280;8505;49.456;8.164;2023-04-06T00:31:32;100037.44;;;-0.28;70.55
16777;BME280;8505;49.456;8.164;2023-04-06T00:34:00;100028.16;;;-0.32;71.13
16777;BME280;8505;49.456;8.164;2023-04-06T00:36:28;100027.25;;;-0.31;70.88
16777;BME280;8505;49.456;8.164;2023-04-06T00:38:56;100030.56;;;-0.29;70.68
16777;BME280;8505;49.456;8.164;2023-04-06T00:41:24;100025.56;;;-0.32;71.24
16777;BME280;8505;49.456;8.164;2023-04-06T00:43:53;100018.38;;;-0.14;70.67
16777;BME280;8505;49.456;8.164;2023-04-06T00:46:21;100018.47;;;-0.30;71.27
16777;BME280;8505;49.456;8.164;2023-04-06T00:48:50;100021.00;;;-0.28;71.24
16777;BME280;8505;49.456;8.164;2023-04-06T00:51:18;100019.78;;;-0.37;71.29
16777;BME280;8505;49.456;8.164;2023-04-06T00:53:46;100024.81;;;-0.34;71.16
16777;BME280;8505;49.456;8.164;2023-04-06T00:56:14;100025.00;;;-0.37;71.46
16777;BME280;8505;49.456;8.164;2023-04-06T00:58:41;100025.00;;;-0.37;71.47
16777;BME280;8505;49.456;8.164;2023-04-06T01:01:09;100020.09;;;-0.42;71.52
16777;BME280;8505;49.456;8.164;2023-04-06T01:03:37;100022.59;;;-0.40;71.64
16777;BME280;8505;49.456;8.164;2023-04-06T01:06:06;100024.38;;;-0.41;71.31
16777;BME280;8505;49.456;8.164;2023-04-06T01:08:34;100019.78;;;-0.37;71.31
16777;BME280;8505;49.456;8.164;2023-04-06T01:11:02;100008.75;;;-0.26;71.06
16777;BME280;8505;49.456;8.164;2023-04-06T01:13:30;100014.97;;;-0.29;71.38
16777;BME280;8505;49.456;8.164;2023-04-06T01:15:58;100012.00;;;-0.37;70.82
16777;BME280;8505;49.456;8.164;2023-04-06T01:18:26;100012.75;;;-0.49;72.17
16777;BME280;8505;49.456;8.164;2023-04-06T01:20:54;100009.59;;;-0.54;71.75
16777;BME280;8505;49.456;8.164;2023-04-06T01:23:23;100009.97;;;-0.46;71.76
16777;BME280;8505;49.456;8.164;2023-04-06T01:25:51;100008.38;;;-0.49;71.55
16777;BME280;8505;49.456;8.164;2023-04-06T01:28:19;100001.72;;;-0.53;71.70
16777;BME280;8505;49.456;8.164;2023-04-06T01:30:47;99995.66;;;-0.39;71.43
16777;BME280;8505;49.456;8.164;2023-04-06T01:33:14;100006.47;;;-0.59;72.11
16777;BME280;8505;49.456;8.164;2023-04-06T01:35:42;99994.38;;;-0.60;72.35
16777;BME280;8505;49.456;8.164;2023-04-06T01:38:10;99991.41;;;-0.54;72.03
16777;BME280;8505;49.456;8.164;2023-04-06T01:40:39;99987.34;;;-0.58;72.31
16777;BME280;8505;49.456;8.164;2023-04-06T01:43:07;99996.44;;;-0.65;72.61
16777;BME280;8505;49.456;8.164;2023-04-06T01:45:35;99992.81;;;-0.77;72.82
16777;BME280;8505;49.456;8.164;2023-04-06T01:48:03;99982.88;;;-0.70;73.02
16777;BME280;8505;49.456;8.164;2023-04-06T01:50:31;99985.88;;;-0.62;72.39
16777;BME280;8505;49.456;8.164;2023-04-06T01:52:59;99978.63;;;-0.71;73.09
16777;BME280;8505;49.456;8.164;2023-04-06T01:55:27;99986.41;;;-0.71;73.00
16777;BME280;8505;49.456;8.164;2023-04-06T01:57:56;99978.63;;;-0.71;73.02
16777;BME280;8505;49.456;8.164;2023-04-06T02:00:24;99975.47;;;-0.76;73.39
16777;BME280;8505;49.456;8.164;2023-04-06T02:02:52;99975.25;;;-0.73;73.59
16777;BME280;8505;49.456;8.164;2023-04-06T02:05:20;99968.13;;;-0.84;73.44
16777;BME280;8505;49.456;8.164;2023-04-06T02:07:48;99976.38;;;-0.77;73.52
16777;BME280;8505;49.456;8.164;2023-04-06T02:10:16;99971.03;;;-0.89;73.92
16777;BME280;8505;49.456;8.164;2023-04-06T02:12:44;99967.66;;;-0.91;74.16
16777;BME280;8505;49.456;8.164;2023-04-06T02:15:13;99968.88;;;-0.82;73.20
16777;BME280;8505;49.456;8.164;2023-04-06T02:17:41;99980.47;;;-0.73;72.88
16777;BME280;8505;49.456;8.164;2023-04-06T02:20:09;99976.69;;;-0.82;73.07
16777;BME280;8505;49.456;8.164;2023-04-06T02:22:39;99973.34;;;-0.84;73.77
16777;BME280;8505;49.456;8.164;2023-04-06T02:25:07;99977.06;;;-0.88;73.50
16777;BME280;8505;49.456;8.164;2023-04-06T02:27:35;99972.94;;;-0.92;74.26
16777;BME280;8505;49.456;8.164;2023-04-06T02:30:03;99970.47;;;-0.94;73.97
16777;BME280;8505;49.456;8.164;2023-04-06T02:32:33;99963.41;;;-0.92;74.01
16777;BME280;8505;49.456;8.164;2023-04-06T02:35:00;99973.16;;;-0.95;74.23
16777;BME280;8505;49.456;8.164;2023-04-06T02:37:28;99959.88;;;-0.91;73.55
16777;BME280;8505;49.456;8.164;2023-04-06T02:39:56;99964.53;;;-0.96;74.17
16777;BME280;8505;49.456;8.164;2023-04-06T02:42:24;99965.06;;;-0.91;73.66
16777;BME280;8505;49.456;8.164;2023-04-06T02:44:52;99968.59;;;-0.92;74.27
16777;BME280;8505;49.456;8.164;2023-04-06T02:47:19;99962.69;;;-0.94;74.29
16777;BME280;8505;49.456;8.164;2023-04-06T02:49:49;99960.25;;;-0.97;74.35
16777;BME280;8505;49.456;8.164;2023-04-06T02:52:16;99962.94;;;-0.98;74.12
16777;BME280;8505;49.456;8.164;2023-04-06T02:54:45;99957.28;;;-0.91;74.05
16777;BME280;8505;49.456;8.164;2023-04-06T02:57:13;99956.16;;;-1.01;74.19
16777;BME280;8505;49.456;8.164;2023-04-06T02:59:40;99963.03;;;-0.86;74.31
16777;BME280;8505;49.456;8.164;2023-04-06T03:02:08;99955.97;;;-0.98;73.96
16777;BME280;8505;49.456;8.164;2023-04-06T03:04:36;99958.22;;;-1.06;74.97
16777;BME280;8505;49.456;8.164;2023-04-06T03:07:06;99952.44;;;-1.11;75.32
16777;BME280;8505;49.456;8.164;2023-04-06T03:09:36;99954.13;;;-1.10;74.98
16777;BME280;8505;49.456;8.164;2023-04-06T03:12:04;99957.84;;;-1.14;75.03
16777;BME280;8505;49.456;8.164;2023-04-06T03:14:35;99950.13;;;-1.15;75.12
16777;BME280;8505;49.456;8.164;2023-04-06T03:17:03;99946.53;;;-1.13;75.31
16777;BME280;8505;49.456;8.164;2023-04-06T03:19:31;99957.63;;;-1.11;75.03
16777;BME280;8505;49.456;8.164;2023-04-06T03:21:59;99949.75;;;-1.09;nan
16777;BME280;8505;49.456;8.164;2023-04-06T03:24:28;99949.13;;;-1.13;74.82
16777;BME280;8505;49.456;8.164;2023-04-06T03:26:56;99953.94;;;-1.07;74.84
16777;BME280;8505;49.456;8.164;2023-04-06T03:29:23;99954.50;;;-1.02;74.45
16777;BME280;8505;49.456;8.164;2023-04-06T03:31:51;99947.72;;;-1.04;74.24
16777;BME280;8505;49.456;8.164;2023-04-06T03:34:19;99950.97;;;-1.15;74.95
16777;BME280;8505;49.456;8.164;2023-04-06T03:36:47;99952.34;;;-1.09;74.58
16777;BME280;8505;49.456;8.164;2023-04-06T03:39:33;99947.91;;;-1.07;74.74
16777;BME280;8505;49.456;8.164;2023-04-06T03:42:01;99954.50;;;-1.16;75.14
16777;BME280;8505;49.456;8.164;2023-04-06T03:44:29;99963.41;;;-1.20;75.36
16777;BME280;8505;49.456;8.164;2023-04-06T03:46:57;99960.72;;;-1.18;75.66
16777;BME280;8505;49.456;8.164;2023-04-06T03:49:25;99963.03;;;-1.14;75.00
16777;BME280;8505;49.456;8.164;2023-04-06T03:51:53;99964.41;;;-1.23;75.19
16777;BME280;8505;49.456;8.164;2023-04-06T03:54:21;99960.88;;;-1.22;75.66
16777;BME280;8505;49.456;8.164;2023-04-06T03:56:50;99958.00;;;-1.17;75.53
16777;BME280;8505;49.456;8.164;2023-04-06T03:59:18;99972.59;;;-1.14;75.50
16777;BME280;8505;49.456;8.164;2023-04-06T04:01:45;99969.72;;;-1.24;75.59
16777;BME280;8505;49.456;8.164;2023-04-06T04:04:13;99968.88;;;-1.25;75.43
16777;BME280;8505;49.456;8.164;2023-04-06T04:06:41;99972.31;;;-1.24;75.54
16777;BME280;8505;49.456;8.164;2023-04-06T04:09:09;99970.44;;;-1.22;75.65
16777;BME280;8505;49.456;8.164;2023-04-06T04:11:37;99973.31;;;-1.27;75.45
16777;BME280;8505;49.456;8.164;2023-04-06T04:14:06;99978.34;;;-1.24;75.69
16777;BME280;8505;49.456;8.164;2023-04-06T04:16:34;99976.47;;;-1.22;75.77
16777;BME280;8505;49.456;8.164;2023-04-06T04:19:02;99983.81;;;-1.14;74.74
16777;BME280;8505;49.456;8.164;2023-04-06T04:21:30;99981.31;;;-1.15;75.24
16777;BME280;8505;49.456;8.164;2023-04-06T04:23:58;99985.31;;;-1.24;75.57
16777;BME280;8505;49.456;8.164;2023-04-06T04:26:26;99976.75;;;-1.26;75.46
16777;BME280;8505;49.456;8.164;2023-04-06T04:28:53;99983.72;;;-1.27;nan
16777;BME280;8505;49.456;8.164;2023-04-06T04:31:23;99986.50;;;-1.15;75.52
16777;BME280;8505;49.456;8.164;2023-04-06T04:33:51;99987.97;;;-1.26;75.40
16777;BME280;8505;49.456;8.164;2023-04-06T04:36:18;99988.06;;;-1.27;75.42
16777;BME280;8505;49.456;8.164;2023-04-06T04:38:46;99994.75;;;-1.23;75.41
16777;BME280;8505;49.456;8.164;2023-04-06T04:41:14;99986.88;;;-1.22;75.57
16777;BME280;8505;49.456;8.164;2023-04-06T04:43:42;99984.91;;;-1.32;75.71
16777;BME280;8505;49.456;8.164;2023-04-06T04:46:10;99986.31;;;-1.27;75.33
16777;BME280;8505;49.456;8.164;2023-04-06T04:48:39;99984.53;;;-1.26;75.76
16777;BME280;8505;49.456;8.164;2023-04-06T04:51:07;99982.03;;;-1.28;75.52
16777;BME280;8505;49.456;8.164;2023-04-06T04:53:35;99985.84;;;-1.19;75.41
16777;BME280;8505;49.456;8.164;2023-04-06T04:56:03;99981.38;;;-1.31;75.53
16777;BME280;8505;49.456;8.164;2023-04-06T04:58:31;99977.41;;;-1.23;75.79
16777;BME280;8505;49.456;8.164;2023-04-06T05:00:59;99986.59;;;-1.31;75.88
16777;BME280;8505;49.456;8.164;2023-04-06T05:03:27;99984.81;;;-1.31;75.29
16777;BME280;8505;49.456;8.164;2023-04-06T05:05:57;99989.66;;;-1.25;75.83
16777;BME280;8505;49.456;8.164;2023-04-06T05:08:24;99996.41;;;-1.22;75.43
16777;BME280;8505;49.456;8.164;2023-04-06T05:10:52;99991.06;;;-1.19;75.11
16777;BME280;8505;49.456;8.164;2023-04-06T05:13:20;99998.41;;;-1.11;74.80
16777;BME280;8505;49.456;8.164;2023-04-06T05:15:48;99993.19;;;-1.26;nan
16777;BME280;8505;49.456;8.164;2023-04-06T05:18:16;99998.47;;;-0.99;74.63
16777;BME280;8505;49.456;8.164;2023-04-06T05:20:44;100000.06;;;-0.96;74.41
16777;BME280;8505;49.456;8.164;2023-04-06T05:23:13;99999.88;;;-1.07;75.10
16777;BME280;8505;49.456;8.164;2023-04-06T05:25:41;100006.28;;;-1.13;75.16
16777;BME280;8505;49.456;8.164;2023-04-06T05:28:09;100004.16;;;-1.06;74.84
16777;BME280;8505;49.456;8.164;2023-04-06T05:30:37;100000.81;;;-0.94;74.81
16777;BME280;8505;49.456;8.164;2023-04-06T05:33:05;99999.31;;;-0.84;74.08
16777;BME280;8505;49.456;8.164;2023-04-06T05:35:33;100008.69;;;-0.67;73.17
16777;BME280;8505;49.456;8.164;2023-04-06T05:38:01;100010.56;;;-0.69;73.65
16777;BME280;8505;49.456;8.164;2023-04-06T05:40:30;100012.97;;;-0.52;72.48
16777;BME280;8505;49.456;8.164;2023-04-06T05:42:58;100011.38;;;-0.55;72.83
16777;BME280;8505;49.456;8.164;2023-04-06T05:45:26;100014.25;;;-0.59;73.12
16777;BME280;8505;49.456;8.164;2023-04-06T05:47:53;100006.16;;;-0.41;72.25
16777;BME280;8505;49.456;8.164;2023-04-06T05:50:21;100002.69;;;-0.27;71.48
16777;BME280;8505;49.456;8.164;2023-04-06T05:52:49;100002.38;;;-0.08;70.54
16777;BME280;8505;49.456;8.164;2023-04-06T05:55:17;99997.13;;;0.19;70.11
16777;BME280;8505;49.456;8.164;2023-04-06T05:57:46;99999.66;;;0.20;69.88
16777;BME280;8505;49.456;8.164;2023-04-06T06:00:15;100009.06;;;0.23;69.64
16777;BME280;8505;49.456;8.164;2023-04-06T06:02:43;100012.38;;;0.25;69.91
16777;BME280;8505;49.456;8.164;2023-04-06T06:05:11;100007.50;;;0.33;69.52
16777;BME280;8505;49.456;8.164;2023-04-06T06:07:40;100012.38;;;0.64;68.68
16777;BME280;8505;49.456;8.164;2023-04-06T06:10:08;100005.31;;;0.92;67.47
16777;BME280;8505;49.456;8.164;2023-04-06T06:12:36;100011.97;;;0.70;67.71
16777;BME280;8505;49.456;8.164;2023-04-06T06:15:07;100013.13;;;0.79;67.31
16777;BME280;8505;49.456;8.164;2023-04-06T06:17:34;100014.91;;;1.04;66.56
16777;BME280;8505;49.456;8.164;2023-04-06T06:20:05;100009.28;;;1.10;66.52
16777;BME280;8505;49.456;8.164;2023-04-06T06:22:34;100008.22;;;1.12;66.08
16777;BME280;8505;49.456;8.164;2023-04-06T06:25:02;100009.16;;;1.24;65.57
16777;BME280;8505;49.456;8.164;2023-04-06T06:27:30;100008.47;;;1.71;64.49
16777;BME280;8505;49.456;8.164;2023-04-06T06:29:58;100005.00;;;1.71;63.98
16777;BME280;8505;49.456;8.164;2023-04-06T06:32:27;100006.97;;;2.51;62.49
16777;BME280;8505;49.456;8.164;2023-04-06T06:34:55;100000.50;;;2.79;59.98
16777;BME280;8505;49.456;8.164;2023-04-06T06:37:22;100001.91;;;2.72;60.39
16777;BME280;8505;49.456;8.164;2023-04-06T06:39:50;100004.22;;;3.10;59.80
16777;BME280;8505;49.456;8.164;2023-04-06T06:42:18;100002.81;;;3.50;57.87
16777;BME280;8505;49.456;8.164;2023-04-06T06:44:46;100006.63;;;3.46;58.37
16777;BME280;8505;49.456;8.164;2023-04-06T06:47:13;100005.69;;;3.25;58.99
16777;BME280;8505;49.456;8.164;2023-04-06T06:49:43;100001.97;;;4.15;57.69
16777;BME280;8505;49.456;8.164;2023-04-06T06:52:10;100001.44;;;4.32;55.54
16777;BME280;8505;49.456;8.164;2023-04-06T06:54:38;99997.44;;;5.11;53.32
16777;BME280;8505;49.456;8.164;2023-04-06T06:57:06;99998.59;;;5.89;51.63
16777;BME280;8505;49.456;8.164;2023-04-06T06:59:34;99994.63;;;6.33;49.88
16777;BME280;8505;49.456;8.164;2023-04-06T07:02:02;99994.78;;;6.60;50.25
16777;BME280;8505;49.456;8.164;2023-04-06T07:04:30;99986.28;;;6.85;48.63
16777;BME280;8505;49.456;8.164;2023-04-06T07:06:59;99996.81;;;6.76;47.79
16777;BME280;8505;49.456;8.164;2023-04-06T07:09:27;99990.84;;;7.40;46.65
16777;BME280;8505;49.456;8.164;2023-04-06T07:11:55;99979.69;;;8.00;45.28
16777;BME280;8505;49.456;8.164;2023-04-06T07:14:23;99986.78;;;8.00;46.16
16777;BME280;8505;49.456;8.164;2023-04-06T07:16:51;99990.63;;;7.78;46.44
16777;BME280;8505;49.456;8.164;2023-04-06T07:19:19;99980.78;;;8.43;44.70
16777;BME280;8505;49.456;8.164;2023-04-06T07:21:47;99982.06;;;8.57;44.09
16777;BME280;8505;49.456;8.164;2023-04-06T07:24:17;99981.38;;;8.98;43.06
16777;BME280;8505;49.456;8.164;2023-04-06T07:26:45;99976.41;;;9.21;42.45
16777;BME280;8505;49.456;8.164;2023-04-06T07:29:12;99978.66;;;9.84;41.77
16777;BME280;8505;49.456;8.164;2023-04-06T07:31:40;99982.50;;;9.97;41.55
16777;BME280;8505;49.456;8.164;2023-04-06T07:34:08;99992.13;;;9.56;41.93
16777;BME280;8505;49.456;8.164;2023-04-06T07:36:36;99983.91;;;9.67;42.03
16777;BME280;8505;49.456;8.164;2023-04-06T07:39:04;99988.19;;;10.19;42.08
16777;BME280;8505;49.456;8.164;2023-04-06T07:41:33;99988.53;;;9.31;44.84
16777;BME280;8505;49.456;8.164;2023-04-06T07:44:01;99996.16;;;9.68;44.47
16777;BME280;8505;49.456;8.164;2023-04-06T07:46:30;99996.78;;;9.62;44.52
16777;BME280;8505;49.456;8.164;2023-04-06T07:48:59;99991.47;;;10.04;43.82
16777;BME280;8505;49.456;8.164;2023-04-06T07:51:28;99996.84;;;10.69;43.91
16777;BME280;8505;49.456;8.164;2023-04-06T07:53:57;99990.72;;;10.52;43.01
16777;BME280;8505;49.456;8.164;2023-04-06T07:56:25;99993.78;;;10.07;43.72
16777;BME280;8505;49.456;8.164;2023-04-06T07:58:54;99983.50;;;9.96;45.05
16777;BME280;8505;49.456;8.164;2023-04-06T08:01:23;99987.84;;;10.05;45.03
16777;BME280;8505;49.456;8.164;2023-04-06T08:03:51;99985.09;;;10.39;44.36
16777;BME280;8505;49.456;8.164;2023-04-06T08:06:21;99987.91;;;10.62;43.89
16777;BME280;8505;49.456;8.164;2023-04-06T08:08:48;99980.16;;;10.52;44.13
16777;BME280;8505;49.456;8.164;2023-04-06T08:11:16;99980.94;;;11.02;42.79
16777;BME280;8505;49.456;8.164;2023-04-06T08:13:44;99979.28;;;11.17;42.88
16777;BME280;8505;49.456;8.164;2023-04-06T08:16:13;99986.03;;;11.27;43.63
16777;BME280;8505;49.456;8.164;2023-04-06T08:18:41;99984.38;;;11.26;42.45
16777;BME280;8505;49.456;8.164;2023-04-06T08:21:09;99990.97;;;11.30;42.24
16777;BME280;8505;49.456;8.164;2023-04-06T08:23:37;99985.81;;;11.37;42.57
16777;BME280;8505;49.456;8.164;2023-04-06T08:26:04;99981.81;;;10.86;42.61
16777;BME280;8505;49.456;8.164;2023-04-06T08:28:32;99980.56;;;11.21;41.79
16777;BME280;8505;49.456;8.164;2023-04-06T08:31:03;99980.25;;;12.33;40.73
16777;BME280;8505;49.456;8.164;2023-04-06T08:33:33;99969.25;;;12.36;39.13
16777;BME280;8505;49.456;8.164;2023-04-06T08:36:10;99978.53;;;11.86;40.22
16777;BME280;8505;49.456;8.164;2023-04-06T08:38:39;99978.44;;;12.33;39.44
16777;BME280;8505;49.456;8.164;2023-04-06T08:41:08;99976.28;;;12.74;38.25
16777;BME280;8505;49.456;8.164;2023-04-06T08:43:42;99968.47;;;12.04;40.99
16777;BME280;8505;49.456;8.164;2023-04-06T08:46:11;99985.06;;;11.75;41.82
16777;BME280;8505;49.456;8.164;2023-04-06T08:48:41;99977.38;;;11.42;42.78
16777;BME280;8505;49.456;8.164;2023-04-06T08:51:10;99977.91;;;11.84;41.96
16777;BME280;8505;49.456;8.164;2023-04-06T08:53:38;99964.66;;;12.07;42.22
16777;BME280;8505;49.456;8.164;2023-04-06T08:56:06;99970.28;;;12.04;42.08
16777;BME280;8505;49.456;8.164;2023-04-06T08:58:39;99971.41;;;13.15;39.88
16777;BME280;8505;49.456;8.164;2023-04-06T09:01:09;99963.00;;;13.41;40.24
16777;BME280;8505;49.456;8.164;2023-04-06T09:03:41;99955.28;;;12.79;41.02
16777;BME280;8505;49.456;8.164;2023-04-06T09:06:10;99959.59;;;13.62;40.17
16777;BME280;8505;49.456;8.164;2023-04-06T09:08:40;99953.59;;;14.10;38.30
16777;BME280;8505;49.456;8.164;2023-04-06T09:11:08;99953.44;;;13.47;39.96
16777;BME280;8505;49.456;8.164;2023-04-06T09:13:46;99954.66;;;13.29;40.19
16777;BME280;8505;49.456;8.164;2023-04-06T09:16:15;99952.25;;;13.34;39.88
16777;BME280;8505;49.456;8.164;2023-04-06T09:18:45;99951.13;;;14.09;38.69
16777;BME280;8505;49.456;8.164;2023-04-06T09:21:16;99951.16;;;14.51;38.30
16777;BME280;8505;49.456;8.164;2023-04-06T09:23:44;99945.75;;;14.45;38.13
16777;BME280;8505;49.456;8.164;2023-04-06T09:26:14;99950.03;;;14.03;37.78
16777;BME280;8505;49.456;8.164;2023-04-06T09:28:46;99939.13;;;13.98;38.64
16777;BME280;8505;49.456;8.164;2023-04-06T09:31:15;99941.19;;;14.39;37.03
16777;BME280;8505;49.456;8.164;2023-04-06T09:33:45;99936.03;;;14.16;37.95
16777;BME280;8505;49.456;8.164;2023-04-06T09:36:13;99933.25;;;14.67;37.21
16777;BME280;8505;49.456;8.164;2023-04-06T09:38:52;99927.53;;;14.27;36.33
16777;BME280;8505;49.456;8.164;2023-04-06T09:41:22;99923.63;;;14.44;37.23
16777;BME280;8505;49.456;8.164;2023-04-06T09:43:51;99933.84;;;14.41;36.63
16777;BME280;8505;49.456;8.164;2023-04-06T09:46:21;99931.06;;;14.49;35.12
16777;BME280;8505;49.456;8.164;2023-04-06T09:48:51;99928.91;;;13.66;37.29
16777;BME280;8505;49.456;8.164;2023-04-06T09:51:20;99933.84;;;13.84;37.60
16777;BME280;8505;49.456;8.164;2023-04-06T09:53:52;99923.72;;;13.94;38.22
16777;BME280;8505;49.456;8.164;2023-04-06T09:56:24;99930.06;;;13.93;37.82
16777;BME280;8505;49.456;8.164;2023-04-06T09:58:58;99924.25;;;14.25;36.30
16777;BME280;8505;49.456;8.164;2023-04-06T10:01:30;99919.91;;;13.82;36.16
16777;BME280;8505;49.456;8.164;2023-04-06T10:04:09;99923.38;;;14.61;34.92
16777;BME280;8505;49.456;8.164;2023-04-06T10:06:41;99927.09;;;14.24;35.22
16777;BME280;8505;49.456;8.164;2023-04-06T10:09:09;99923.66;;;14.08;35.54
16777;BME280;8505;49.456;8.164;2023-04-06T10:11:37;99920.59;;;14.75;35.07
16777;BME280;8505;49.456;8.164;2023-04-06T10:14:06;99924.13;;;15.10;34.77
16777;BME280;8505;49.456;8.164;2023-04-06T10:16:34;99926.66;;;15.25;33.15
16777;BME280;8505;49.456;8.164;2023-04-06T10:19:11;99914.28;;;14.83;32.17
16777;BME280;8505;49.456;8.164;2023-04-06T10:21:43;99917.63;;;15.54;32.15
16777;BME280;8505;49.456;8.164;2023-04-06T10:24:13;99917.00;;;14.89;33.63
16777;BME280;8505;49.456;8.164;2023-04-06T10:26:41;99913.91;;;15.20;33.41
16777;BME280;8505;49.456;8.164;2023-04-06T10:29:09;99911.19;;;15.07;33.85
16777;BME280;8505;49.456;8.164;2023-04-06T10:31:40;99904.25;;;15.19;33.02
16777;BME280;8505;49.456;8.164;2023-04-06T10:34:12;99910.47;;;15.61;32.83
16777;BME280;8505;49.456;8.164;2023-04-06T10:36:41;99908.28;;;15.36;32.83
16777;BME280;8505;49.456;8.164;2023-04-06T10:39:08;99902.28;;;14.93;32.99
16777;BME280;8505;49.456;8.164;2023-04-06T10:41:41;99905.91;;;15.20;31.71
16777;BME280;8505;49.456;8.164;2023-04-06T10:44:17;99903.28;;;15.68;31.24
16777;BME280;8505;49.456;8.164;2023-04-06T10:46:52;99909.63;;;15.54;30.55
16777;BME280;8505;49.456;8.164;2023-04-06T10:49:22;99903.31;;;15.81;30.50
16777;BME280;8505;49.456;8.164;2023-04-06T10:51:54;99887.06;;;15.69;30.64
16777;BME280;8505;49.456;8.164;2023-04-06T10:54:24;99899.16;;;15.18;30.93
16777;BME280;8505;49.456;8.164;2023-04-06T10:56:52;99884.63;;;14.92;31.01
16777;BME280;8505;49.456;8.164;2023-04-06T10:59:20;99889.69;;;14.81;30.89
16777;BME280;8505;49.456;8.164;2023-04-06T11:01:48;99880.66;;;15.16;30.58
16777;BME280;8505;49.456;8.164;2023-04-06T11:04:17;99890.19;;;15.38;30.72
16777;BME280;8505;49.456;8.164;2023-04-06T11:06:48;99891.28;;;14.47;30.41
16777;BME280;8505;49.456;8.164;2023-04-06T11:09:24;99887.03;;;14.81;29.86
16777;BME280;8505;49.456;8.164;2023-04-06T11:11:52;99882.75;;;14.58;30.41
16777;BME280;8505;49.456;8.164;2023-04-06T11:14:22;99871.72;;;15.37;29.61
16777;BME280;8505;49.456;8.164;2023-04-06T11:16:50;99876.59;;;15.27;29.24
16777;BME280;8505;49.456;8.164;2023-04-06T11:19:18;99874.72;;;15.62;28.65
16777;BME280;8505;49.456;8.164;2023-04-06T11:21:48;99871.69;;;15.24;29.47
16777;BME280;8505;49.456;8.164;2023-04-06T11:24:17;99879.66;;;15.58;28.63
16777;BME280;8505;49.456;8.164;2023-04-06T11:26:48;99868.06;;;15.45;28.59
16777;BME280;8505;49.456;8.164;2023-04-06T11:29:18;99875.19;;;14.90;29.10
16777;BME280;8505;49.456;8.164;2023-04-06T11:31:47;99870.84;;;15.23;28.56
16777;BME280;8505;49.456;8.164;2023-04-06T11:34:17;99870.72;;;14.97;28.49
16777;BME280;8505;49.456;8.164;2023-04-06T11:36:48;99861.28;;;15.01;28.57
16777;BME280;8505;49.456;8.164;2023-04-06T11:39:19;99861.88;;;15.37;27.73
16777;BME280;8505;49.456;8.164;2023-04-06T11:41:48;99854.34;;;15.07;28.05
16777;BME280;8505;49.456;8.164;2023-04-06T11:44:28;99857.16;;;14.64;27.96
16777;BME280;8505;49.456;8.164;2023-04-06T11:46:57;99848.22;;;15.13;27.66
16777;BME280;8505;49.456;8.164;2023-04-06T11:49:27;99854.16;;;15.08;27.68
16777;BME280;8505;49.456;8.164;2023-04-06T11:51:57;99835.09;;;15.59;27.38
16777;BME280;8505;49.456;8.164;2023-04-06T11:54:32;99848.50;;;14.90;27.97
16777;BME280;8505;49.456;8.164;2023-04-06T11:57:00;99842.22;;;14.70;28.47
16777;BME280;8505;49.456;8.164;2023-04-06T11:59:28;99837.47;;;14.65;27.91
16777;BME280;8505;49.456;8.164;2023-04-06T12:01:56;99838.63;;;14.84;28.10
16777;BME280;8505;49.456;8.164;2023-04-06T12:04:24;99836.19;;;14.33;28.60
16777;BME280;8505;49.456;8.164;2023-04-06T12:06:53;99834.66;;;14.17;29.06
16777;BME280;8505;49.456;8.164;2023-04-06T12:09:22;99836.94;;;14.76;28.32
16777;BME280;8505;49.456;8.164;2023-04-06T12:11:50;99838.38;;;15.13;27.39
16777;BME280;8505;49.456;8.164;2023-04-06T12:14:18;99827.19;;;15.44;27.69
16777;BME280;8505;49.456;8.164;2023-04-06T12:16:46;99816.53;;;15.51;27.01
16777;BME280;8505;49.456;8.164;2023-04-06T12:19:14;99815.31;;;15.47;27.96
16777;BME280;8505;49.456;8.164;2023-04-06T12:21:41;99809.63;;;15.63;27.52
16777;BME280;8505;49.456;8.164;2023-04-06T12:24:09;99810.03;;;15.60;27.54
16777;BME280;8505;49.456;8.164;2023-04-06T12:26:38;99806.44;;;15.33;27.10
16777;BME280;8505;49.456;8.164;2023-04-06T12:29:07;99818.03;;;15.53;26.85
16777;BME280;8505;49.456;8.164;2023-04-06T12:31:36;99814.47;;;15.46;27.08
16777;BME280;8505;49.456;8.164;2023-04-06T12:34:05;99822.91;;;14.61;27.45
16777;BME280;8505;49.456;8.164;2023-04-06T12:36:34;99817.06;;;15.20;27.39
16777;BME280;8505;49.456;8.164;2023-04-06T12:39:02;99841.28;;;14.49;27.66
16777;BME280;8505;49.456;8.164;2023-04-06T12:41:30;99828.59;;;14.30;27.85
16777;BME280;8505;49.456;8.164;2023-04-06T12:43:59;99824.66;;;14.82;27.28
16777;BME280;8505;49.456;8.164;2023-04-06T12:46:27;99828.44;;;14.60;27.21
16777;BME280;8505;49.456;8.164;2023-04-06T12:48:56;99828.47;;;14.66;27.99
16777;BME280;8505;49.456;8.164;2023-04-06T12:51:27;99814.09;;;14.61;27.82
16777;BME280;8505;49.456;8.164;2023-04-06T12:53:55;99805.06;;;14.96;27.51
16777;BME280;8505;49.456;8.164;2023-04-06T12:56:25;99809.72;;;15.28;27.20
16777;BME280;8505;49.456;8.164;2023-04-06T12:58:53;99805.56;;;15.19;26.70
16777;BME280;8505;49.456;8.164;2023-04-06T13:01:22;99806.88;;;14.33;28.46
16777;BME280;8505;49.456;8.164;2023-04-06T13:03:52;99814.38;;;14.44;27.40
16777;BME280;8505;49.456;8.164;2023-04-06T13:06:20;99803.81;;;14.92;27.69
16777;BME280;8505;49.456;8.164;2023-04-06T13:08:48;99799.59;;;15.11;27.38
16777;BME280;8505;49.456;8.164;2023-04-06T13:11:16;99801.81;;;15.07;27.33
16777;BME280;8505;49.456;8.164;2023-04-06T13:13:45;99797.06;;;14.96;27.78
16777;BME280;8505;49.456;8.164;2023-04-06T13:16:12;99795.69;;;14.72;27.82
16777;BME280;8505;49.456;8.164;2023-04-06T13:18:43;99798.47;;;14.30;28.27